This is the latest recevied weather packets stored in our database for station/object N8JE. If no packets are shown the sender has not sent any weather packets the latest 10 day(s).
| Time | Temp. | Humidity | Pressure | Rain* | Wind** | Luminosity | Snow |
|---|---|---|---|---|---|---|---|
| 1777738804 | 8.33° C | 48% | 1018.7 hPa | 0 mm | - | - | - |
| 1777737304 | 8.33° C | 51% | 1018.7 hPa | 0 mm | - | - | - |
| 1777735804 | 7.78° C | 53% | 1018.8 hPa | 0 mm | - | - | - |
| 1777734904 | 7.22° C | 57% | 1018.8 hPa | 0 mm | - | - | - |
| 1777733104 | 6.67° C | 58% | 1018.5 hPa | 0 mm | - | - | - |
| 1777732205 | 6.67° C | 61% | 1018.6 hPa | 0 mm | - | - | - |
| 1777729205 | 5.56° C | 68% | 1018.5 hPa | 0 mm | - | - | - |
| 1777728305 | 5.56° C | 68% | 1018.6 hPa | 0 mm | - | - | - |
| 1777728005 | 5° C | 68% | 1018.6 hPa | 0 mm | - | - | - |
| 1777727405 | 5° C | 69% | 1018.5 hPa | 0 mm | - | - | - |
| 1777727104 | 4.44° C | 70% | 1018.5 hPa | 0 mm | - | - | - |
| 1777726205 | 3.89° C | 71% | 1018.3 hPa | 0 mm | - | - | - |
| 1777725305 | 3.33° C | 73% | 1018.3 hPa | 0 mm | - | - | - |
| 1777723204 | 2.78° C | 74% | 1017.9 hPa | 0 mm | - | - | - |
| 1777722905 | 2.78° C | 75% | 1017.8 hPa | 0 mm | - | - | - |
| 1777721104 | 2.22° C | 78% | 1017.7 hPa | 0 mm | - | - | - |
| 1777720205 | 1.67° C | 80% | 1017.6 hPa | 0 mm | - | - | - |
| 1777718705 | 1.11° C | 81% | 1017.6 hPa | 0 mm | - | - | - |
| 1777716905 | 1.67° C | 80% | 1017.4 hPa | 0 mm | - | - | - |
| 1777716005 | 1.67° C | 80% | 1017.4 hPa | 0 mm | - | - | - |
| 1777715105 | 2.22° C | 79% | 1017.4 hPa | 0 mm | - | - | - |
| 1777714804 | 2.22° C | 78% | 1017.4 hPa | 0 mm | - | - | - |
| 1777714204 | 2.22° C | 78% | 1017.5 hPa | 0 mm | - | - | - |
| 1777713604 | 2.22° C | 78% | 1017.4 hPa | 0 mm | - | - | - |
| 1777713304 | 2.22° C | 79% | 1017.3 hPa | 0 mm | - | - | - |
* Rain latest hour (hover to see other rain measurements)
** Current wind speed in m/s (hover to see current wind gust speed)